createdAt,value
2017-08-05T00:02:32.178Z,2.07
2017-08-05T00:05:33.699Z,1.70
2017-08-05T00:08:35.200Z,2.20
2017-08-05T00:11:36.744Z,2.03
2017-08-05T00:14:38.886Z,1.53
2017-08-05T00:17:40.919Z,1.97
2017-08-05T00:20:43.072Z,2.10
2017-08-05T00:23:45.170Z,2.07
2017-08-05T00:26:46.706Z,1.70
2017-08-05T00:29:49.006Z,2.00
2017-08-05T00:32:50.500Z,1.83
2017-08-05T00:35:52.036Z,1.80
2017-08-05T00:38:53.494Z,2.00
2017-08-05T00:41:55.191Z,2.30
2017-08-05T00:44:57.427Z,2.77
2017-08-05T00:47:59.010Z,2.17
2017-08-05T00:51:00.618Z,1.83
2017-08-05T00:54:02.187Z,2.03
2017-08-05T00:57:03.744Z,2.10
2017-08-05T01:00:05.256Z,1.70
2017-08-05T01:03:07.583Z,2.23
2017-08-05T01:06:09.126Z,1.70
2017-08-05T01:09:11.357Z,2.07
2017-08-05T01:12:12.887Z,2.27
2017-08-05T01:15:14.432Z,1.53
2017-08-05T01:18:16.033Z,1.80
2017-08-05T01:21:17.565Z,1.60
2017-08-05T01:24:19.103Z,1.57
2017-08-05T01:27:20.661Z,2.10
2017-08-05T01:30:22.415Z,1.50
2017-08-05T01:33:23.951Z,1.53
2017-08-05T01:36:25.660Z,1.50
2017-08-05T01:39:27.932Z,1.73
2017-08-05T01:42:30.328Z,1.80
2017-08-05T01:45:31.851Z,1.67
2017-08-05T01:48:34.184Z,1.80
2017-08-05T01:51:35.780Z,1.70
2017-08-05T01:54:37.312Z,1.60
2017-08-05T01:57:38.962Z,1.63
2017-08-05T02:00:40.476Z,1.67
2017-08-05T02:03:42.168Z,2.30
2017-08-05T02:06:43.644Z,1.43
2017-08-05T02:09:45.191Z,2.13
2017-08-05T02:12:46.692Z,1.40
2017-08-05T02:15:48.928Z,1.83
2017-08-05T02:18:50.498Z,1.73
2017-08-05T02:21:52.770Z,1.70
2017-08-05T02:24:55.006Z,1.63
2017-08-05T02:27:56.508Z,2.10
2017-08-05T02:30:59.007Z,1.60
2017-08-05T02:34:00.551Z,2.57
2017-08-05T02:37:02.070Z,2.20
2017-08-05T02:40:03.591Z,2.07
2017-08-05T02:43:05.163Z,1.90
2017-08-05T02:46:06.608Z,1.80
2017-08-05T02:49:08.090Z,1.93
2017-08-05T02:52:09.594Z,2.10
2017-08-05T02:55:11.111Z,2.03
2017-08-05T02:58:13.407Z,2.00
2017-08-05T03:01:14.996Z,1.90
2017-08-05T03:04:16.627Z,2.07
2017-08-05T03:07:18.155Z,2.00
2017-08-05T03:10:20.471Z,2.00
2017-08-05T03:13:21.953Z,2.47
2017-08-05T03:16:23.465Z,2.43
2017-08-05T03:19:24.992Z,2.00
2017-08-05T03:22:27.305Z,2.43
2017-08-05T03:25:29.063Z,1.73
2017-08-05T03:28:30.555Z,2.37
2017-08-05T03:31:32.076Z,2.00
2017-08-05T03:34:33.602Z,1.77
2017-08-05T03:37:35.159Z,1.87
2017-08-05T03:40:36.668Z,1.90
2017-08-05T03:43:38.253Z,1.47
2017-08-05T03:46:40.581Z,2.03
2017-08-05T03:49:42.178Z,2.43
2017-08-05T03:52:44.487Z,2.10
2017-08-05T03:55:46.042Z,2.60
2017-08-05T03:58:47.563Z,2.20
2017-08-05T04:01:49.099Z,2.00
2017-08-05T04:04:50.703Z,1.80
2017-08-05T04:07:52.247Z,2.30
2017-08-05T04:10:53.808Z,2.53
2017-08-05T04:13:55.391Z,2.10
2017-08-05T04:16:57.020Z,2.40
2017-08-05T04:19:58.757Z,1.90
2017-08-05T04:23:01.080Z,1.70
2017-08-05T04:26:02.607Z,2.10
2017-08-05T04:29:04.199Z,2.00
2017-08-05T04:32:05.780Z,2.07
2017-08-05T04:35:07.443Z,2.17
2017-08-05T04:38:09.791Z,2.50
2017-08-05T04:41:11.487Z,2.13
2017-08-05T04:44:13.021Z,2.20
2017-08-05T04:47:14.548Z,2.30
2017-08-05T04:50:16.111Z,2.23
2017-08-05T04:53:17.668Z,1.73
2017-08-05T04:56:19.218Z,2.53
2017-08-05T04:59:20.762Z,2.37
2017-08-05T05:02:22.335Z,2.17
2017-08-05T05:05:23.919Z,1.90
2017-08-05T05:08:26.293Z,2.30
2017-08-05T05:11:27.849Z,2.80
2017-08-05T05:14:29.408Z,2.63
2017-08-05T05:17:31.716Z,2.80
2017-08-05T05:20:33.298Z,1.80
2017-08-05T05:23:34.875Z,1.83
2017-08-05T05:26:36.477Z,3.00
2017-08-05T05:29:38.011Z,2.50
2017-08-05T05:32:40.278Z,3.10
2017-08-05T05:35:42.539Z,2.70
2017-08-05T05:38:44.113Z,2.67
2017-08-05T05:41:46.400Z,3.40
2017-08-05T05:44:47.951Z,2.70
2017-08-05T05:47:49.484Z,3.53
2017-08-05T05:50:51.023Z,3.40
2017-08-05T05:53:52.585Z,2.50
2017-08-05T05:56:54.130Z,3.50
2017-08-05T05:59:55.672Z,3.13
2017-08-05T06:02:57.183Z,2.90
2017-08-05T06:05:58.728Z,3.00
2017-08-05T06:09:00.456Z,4.80
2017-08-05T06:12:01.956Z,3.53
2017-08-05T06:15:03.540Z,3.77
2017-08-05T06:18:05.091Z,3.63
2017-08-05T06:21:06.654Z,4.20
2017-08-05T06:24:08.223Z,4.10
2017-08-05T06:27:09.769Z,3.30
2017-08-05T06:30:11.311Z,3.90
2017-08-05T06:33:12.839Z,4.13
2017-08-05T06:36:14.478Z,3.93
2017-08-05T06:39:16.695Z,3.73
2017-08-05T06:42:18.282Z,3.83
2017-08-05T06:45:19.749Z,4.47
2017-08-05T06:48:21.965Z,3.60
2017-08-05T06:51:23.460Z,4.37
2017-08-05T06:54:24.950Z,4.50
2017-08-05T06:57:26.449Z,3.63
2017-08-05T07:00:27.970Z,3.47
2017-08-05T07:03:29.463Z,4.80
2017-08-05T07:06:30.926Z,4.20
2017-08-05T07:09:33.107Z,4.80
2017-08-05T07:12:34.629Z,4.73
2017-08-05T07:15:36.052Z,4.40
2017-08-05T07:18:37.568Z,4.57
2017-08-05T07:21:39.234Z,4.87
2017-08-05T07:24:41.475Z,4.30
2017-08-05T07:27:42.958Z,4.47
2017-08-05T07:30:45.571Z,4.47
2017-08-05T07:33:47.000Z,4.13
2017-08-05T07:36:48.372Z,4.73
2017-08-05T07:39:49.780Z,4.20
2017-08-05T07:42:51.293Z,4.50
2017-08-05T07:45:52.692Z,4.10
2017-08-05T07:48:54.968Z,4.00
2017-08-05T07:51:57.076Z,4.07
2017-08-05T07:54:58.541Z,3.90
2017-08-05T08:01:08.176Z,4.37
2017-08-05T08:04:09.535Z,4.27
2017-08-05T08:07:10.933Z,3.60
2017-08-05T08:10:12.361Z,4.37
2017-08-05T08:13:13.712Z,4.23
2017-08-05T08:16:15.121Z,3.47
2017-08-05T08:19:16.510Z,3.37
2017-08-05T08:22:17.909Z,3.10
2017-08-05T08:25:20.038Z,3.77
2017-08-05T08:28:21.511Z,2.83
2017-08-05T08:31:23.038Z,3.10
2017-08-05T08:34:24.463Z,2.60
2017-08-05T08:37:25.829Z,2.50
2017-08-05T08:40:27.255Z,2.40
2017-08-05T08:43:29.351Z,2.87
2017-08-05T08:46:30.835Z,1.90
2017-08-05T08:49:32.262Z,2.90
2017-08-05T08:52:33.656Z,3.10
2017-08-05T08:55:35.845Z,2.90
2017-08-05T08:58:37.983Z,2.33
2017-08-05T09:01:39.416Z,4.67
2017-08-05T09:04:40.845Z,2.40
2017-08-05T09:07:42.378Z,2.57
2017-08-05T09:10:43.748Z,2.07
2017-08-05T09:13:45.212Z,2.30
2017-08-05T09:16:46.590Z,2.63
2017-08-05T09:19:47.990Z,1.60
2017-08-05T09:22:50.405Z,1.97
2017-08-05T09:25:51.879Z,1.93
2017-08-05T09:28:53.246Z,2.33
2017-08-05T09:31:55.377Z,2.17
2017-08-05T09:34:57.235Z,1.80
2017-08-05T09:37:58.817Z,1.83
2017-08-05T09:41:00.245Z,1.87
2017-08-05T09:44:01.888Z,1.90
2017-08-05T09:47:03.272Z,1.80
2017-08-05T09:50:04.829Z,2.10
2017-08-05T09:53:06.328Z,2.03
2017-08-05T09:56:07.775Z,1.50
2017-08-05T09:59:09.155Z,1.77
2017-08-05T10:02:10.577Z,2.27
2017-08-05T10:05:12.000Z,1.57
2017-08-05T10:08:14.100Z,1.77
2017-08-05T10:11:15.539Z,1.90
2017-08-05T10:14:19.087Z,2.00
2017-08-05T10:17:20.578Z,2.07
2017-08-05T10:20:22.720Z,2.00
2017-08-05T10:23:24.204Z,2.17
2017-08-05T10:26:26.364Z,2.20
2017-08-05T10:29:27.871Z,2.13
2017-08-05T10:32:29.278Z,2.43
2017-08-05T10:35:31.415Z,2.73
2017-08-05T10:38:32.875Z,2.50
2017-08-05T10:41:34.401Z,2.67
2017-08-05T10:44:35.916Z,2.70
2017-08-05T10:47:37.322Z,2.23
2017-08-05T10:50:38.834Z,2.13
2017-08-05T10:53:40.300Z,2.10
2017-08-05T10:56:41.816Z,2.47
2017-08-05T10:59:44.044Z,3.27
2017-08-05T11:02:45.480Z,3.50
2017-08-05T11:05:46.885Z,4.23
2017-08-05T11:08:49.165Z,3.80
2017-08-05T11:11:51.504Z,5.30
2017-08-05T11:14:52.865Z,5.63
2017-08-05T11:17:54.267Z,6.47
2017-08-05T11:20:55.648Z,7.10
2017-08-05T11:23:57.048Z,6.30
2017-08-05T11:26:59.174Z,6.80
2017-08-05T11:30:00.595Z,10.30
2017-08-05T11:33:02.229Z,11.30
2017-08-05T11:36:04.412Z,12.07
2017-08-05T11:39:05.825Z,12.27
2017-08-05T11:42:07.202Z,12.57
2017-08-05T11:45:09.452Z,12.70
2017-08-05T11:48:10.857Z,13.13
2017-08-05T11:51:12.327Z,11.80
2017-08-05T11:54:13.807Z,13.93
2017-08-05T11:57:16.009Z,15.20
2017-08-05T12:00:17.465Z,13.83
2017-08-05T12:03:18.859Z,13.27
2017-08-05T12:06:20.241Z,12.90
2017-08-05T12:09:22.356Z,12.10
2017-08-05T12:12:24.128Z,12.40
2017-08-05T12:15:25.474Z,13.37
2017-08-05T12:18:26.853Z,10.23
2017-08-05T12:21:28.268Z,10.47
2017-08-05T12:24:29.732Z,12.37
2017-08-05T12:27:31.152Z,12.57
2017-08-05T12:30:32.844Z,10.13
2017-08-05T12:33:34.213Z,8.70
2017-08-05T12:36:35.616Z,9.37
2017-08-05T12:39:37.067Z,11.20
2017-08-05T12:42:38.492Z,10.93
2017-08-05T12:45:40.657Z,10.13
2017-08-05T12:48:42.756Z,8.70
2017-08-05T12:51:44.144Z,10.20
2017-08-05T12:54:45.529Z,8.77
2017-08-05T12:57:47.676Z,9.30
2017-08-05T13:00:49.102Z,8.00
2017-08-05T13:03:50.502Z,5.67
2017-08-05T13:06:53.093Z,4.10
2017-08-05T13:09:54.505Z,3.10
2017-08-05T13:12:55.861Z,2.53
2017-08-05T13:15:57.330Z,2.33
2017-08-05T13:18:59.564Z,2.30
2017-08-05T13:22:01.047Z,1.87
2017-08-05T13:25:03.377Z,2.27
2017-08-05T13:28:04.719Z,1.87
2017-08-05T13:31:06.200Z,1.57
2017-08-05T13:34:07.605Z,2.20
2017-08-05T13:37:09.012Z,2.40
2017-08-05T13:40:10.381Z,1.93
2017-08-05T13:43:12.539Z,1.90
2017-08-05T13:46:14.713Z,2.80
2017-08-05T13:49:16.899Z,3.00
2017-08-05T13:52:18.319Z,2.67
2017-08-05T13:55:19.693Z,2.97
2017-08-05T13:58:21.808Z,3.53
2017-08-05T14:01:23.212Z,3.30
2017-08-05T14:04:25.416Z,2.70
2017-08-05T14:07:26.803Z,3.20
2017-08-05T14:10:28.188Z,2.40
2017-08-05T14:13:30.438Z,2.90
2017-08-05T14:16:31.873Z,3.00
2017-08-05T14:19:33.277Z,2.67
2017-08-05T14:22:34.632Z,3.40
2017-08-05T14:25:36.022Z,3.20
2017-08-05T14:28:37.372Z,2.80
2017-08-05T14:31:38.775Z,2.63
2017-08-05T14:34:40.134Z,3.17
2017-08-05T14:37:41.558Z,3.90
2017-08-05T14:40:43.668Z,3.47
2017-08-05T14:43:45.082Z,3.10
2017-08-05T14:46:47.349Z,4.40
2017-08-05T14:49:49.450Z,3.53
2017-08-05T14:52:50.869Z,3.33
2017-08-05T14:55:52.966Z,3.93
2017-08-05T14:58:54.353Z,3.60
2017-08-05T15:01:55.702Z,3.13
2017-08-05T15:04:57.102Z,4.03
2017-08-05T15:07:58.913Z,3.23
2017-08-05T15:11:00.266Z,3.50
2017-08-05T15:14:01.639Z,3.37
2017-08-05T15:17:03.015Z,2.90
2017-08-05T15:20:04.437Z,3.40
2017-08-05T15:23:05.904Z,4.00
2017-08-05T15:26:08.029Z,3.50
2017-08-05T15:29:09.519Z,3.33
2017-08-05T15:32:10.858Z,3.20
2017-08-05T15:35:12.269Z,3.67
2017-08-05T15:38:15.490Z,4.90
2017-08-05T15:41:17.921Z,4.47
2017-08-05T15:44:19.315Z,5.77
2017-08-05T15:47:20.903Z,5.27
2017-08-05T15:50:22.408Z,6.27
2017-08-05T15:53:23.785Z,7.17
2017-08-05T15:56:25.274Z,6.63
2017-08-05T15:59:27.830Z,6.83
2017-08-05T16:02:30.011Z,7.60
2017-08-05T16:05:32.020Z,7.90
2017-08-05T16:08:35.614Z,6.40
2017-08-05T16:11:37.021Z,5.17
2017-08-05T16:14:38.469Z,5.17
2017-08-05T16:17:42.734Z,5.73
2017-08-05T16:20:45.366Z,5.90
2017-08-05T16:23:46.783Z,6.50
2017-08-05T16:26:48.135Z,6.23
2017-08-05T16:29:49.539Z,49.57
2017-08-05T16:32:50.910Z,7.30
2017-08-05T16:35:53.027Z,8.10
2017-08-05T16:38:54.389Z,7.63
2017-08-05T16:41:55.818Z,7.40
2017-08-05T16:44:57.175Z,7.03
2017-08-05T16:47:58.632Z,6.93
2017-08-05T16:51:00.114Z,7.37
2017-08-05T16:54:02.285Z,8.00
2017-08-05T16:57:04.385Z,7.47
2017-08-05T17:00:05.770Z,6.90
2017-08-05T17:03:07.185Z,6.60
2017-08-05T17:06:08.601Z,5.60
2017-08-05T17:09:09.995Z,5.60
2017-08-05T17:12:11.381Z,5.17
2017-08-05T17:15:12.776Z,5.20
2017-08-05T17:18:14.147Z,4.87
2017-08-05T17:21:15.565Z,3.90
2017-08-05T17:24:17.708Z,3.97
2017-08-05T17:27:19.111Z,3.90
2017-08-05T17:30:20.525Z,4.13
2017-08-05T17:33:21.951Z,4.20
2017-08-05T17:36:23.314Z,3.60
2017-08-05T17:39:24.729Z,3.30
2017-08-05T17:42:26.316Z,3.83
2017-08-05T17:45:27.705Z,3.70
2017-08-05T17:48:29.165Z,3.67
2017-08-05T17:51:31.260Z,3.33
2017-08-05T17:54:32.635Z,4.73
2017-08-05T17:57:34.001Z,3.30
2017-08-05T18:00:35.451Z,4.00
2017-08-05T18:03:36.983Z,3.90
2017-08-05T18:06:38.346Z,3.87
2017-08-05T18:09:39.943Z,3.40
2017-08-05T18:12:42.023Z,3.30
2017-08-05T18:15:43.444Z,2.90
2017-08-05T18:18:44.815Z,3.20
2017-08-05T18:21:46.196Z,3.10
2017-08-05T18:24:47.561Z,3.47
2017-08-05T18:27:48.920Z,3.43
2017-08-05T18:30:50.280Z,2.97
2017-08-05T18:33:51.653Z,2.93
2017-08-05T18:36:53.781Z,3.33
2017-08-05T18:39:55.199Z,2.90
2017-08-05T18:42:56.701Z,3.57
2017-08-05T18:45:58.081Z,4.00
2017-08-05T18:49:00.253Z,3.50
2017-08-05T18:52:02.354Z,3.40
2017-08-05T18:55:03.739Z,3.10
2017-08-05T18:58:05.147Z,2.90
2017-08-05T19:01:06.552Z,3.30
2017-08-05T19:04:07.901Z,3.00
2017-08-05T19:07:09.305Z,2.73
2017-08-05T19:10:10.676Z,3.03
2017-08-05T19:13:12.079Z,2.90
2017-08-05T19:16:13.456Z,3.40
2017-08-05T19:19:14.857Z,3.47
2017-08-05T19:22:16.209Z,4.50
2017-08-05T19:25:17.646Z,4.20
2017-08-05T19:28:19.014Z,3.43
2017-08-05T19:31:20.428Z,4.13
2017-08-05T19:34:21.824Z,5.23
2017-08-05T19:37:23.274Z,5.20
2017-08-05T19:40:24.782Z,4.57
2017-08-05T19:43:26.352Z,5.10
2017-08-05T19:46:28.023Z,4.23
2017-08-05T19:49:29.539Z,5.00
2017-08-05T19:52:31.080Z,5.00
2017-08-05T19:55:32.564Z,5.83
2017-08-05T19:58:34.086Z,5.20
2017-08-05T20:01:35.586Z,5.60
2017-08-05T20:04:37.061Z,5.50
2017-08-05T20:07:39.296Z,5.93
2017-08-05T20:10:40.776Z,5.47
2017-08-05T20:13:43.016Z,6.43
2017-08-05T20:16:44.511Z,6.13
2017-08-05T20:19:46.885Z,6.93
2017-08-05T20:22:48.368Z,6.13
2017-08-05T20:25:49.901Z,6.53
2017-08-05T20:28:51.440Z,5.93
2017-08-05T20:31:53.692Z,6.77
2017-08-05T20:34:55.172Z,6.50
2017-08-05T20:37:57.404Z,6.87
2017-08-05T20:40:58.899Z,6.40
2017-08-05T20:44:00.410Z,6.60
2017-08-05T20:47:01.995Z,7.60
2017-08-05T20:50:04.278Z,7.73
2017-08-05T20:53:05.910Z,8.20
2017-08-05T20:56:07.429Z,7.30
2017-08-05T20:59:08.948Z,7.60
2017-08-05T21:02:10.425Z,7.93
2017-08-05T21:05:11.978Z,7.97
2017-08-05T21:08:13.452Z,8.93
2017-08-05T21:11:14.981Z,9.63
2017-08-05T21:14:16.433Z,9.93
2017-08-05T21:17:17.946Z,9.50
2017-08-05T21:20:19.471Z,9.10
2017-08-05T21:23:21.027Z,8.77
2017-08-05T21:26:22.744Z,9.33
2017-08-05T21:29:24.193Z,8.70
2017-08-05T21:32:25.687Z,9.07
2017-08-05T21:35:27.126Z,9.70
2017-08-05T21:38:28.641Z,8.33
2017-08-05T21:41:30.131Z,7.90
2017-08-05T21:44:31.686Z,9.40
2017-08-05T21:47:33.204Z,8.83
2017-08-05T21:50:35.458Z,9.23
2017-08-05T21:53:37.849Z,9.40
2017-08-05T21:56:40.072Z,8.30
2017-08-05T21:59:41.590Z,9.50
2017-08-05T22:02:43.197Z,9.33
2017-08-05T22:05:44.720Z,8.93
2017-08-05T22:08:46.263Z,10.00
2017-08-05T22:11:47.703Z,9.37
2017-08-05T22:14:49.895Z,9.17
2017-08-05T22:17:51.483Z,11.47
2017-08-05T22:20:53.055Z,10.10
2017-08-05T22:23:54.534Z,9.57
2017-08-05T22:26:56.763Z,10.23
2017-08-05T22:29:58.391Z,9.47
2017-08-05T22:32:59.832Z,8.90
2017-08-05T22:36:01.299Z,9.23
2017-08-05T22:39:03.140Z,9.50
2017-08-05T22:42:04.683Z,9.00
2017-08-05T22:45:07.023Z,8.03
2017-08-05T22:48:08.563Z,8.80
2017-08-05T22:51:10.060Z,8.00
2017-08-05T22:54:12.269Z,8.90
2017-08-05T22:57:13.782Z,9.00
2017-08-05T23:00:16.046Z,8.40
2017-08-05T23:03:18.298Z,8.50
2017-08-05T23:06:19.806Z,7.90
2017-08-05T23:09:28.280Z,8.20
2017-08-05T23:12:30.076Z,6.93
2017-08-05T23:15:31.600Z,7.60
2017-08-05T23:18:33.225Z,8.13
2017-08-05T23:21:34.737Z,7.40
2017-08-05T23:24:37.012Z,9.07
2017-08-05T23:27:39.220Z,6.90
2017-08-05T23:30:40.740Z,7.13
2017-08-05T23:33:43.016Z,6.87
2017-08-05T23:36:44.502Z,7.97
2017-08-05T23:39:45.961Z,7.50
2017-08-05T23:42:47.507Z,7.67
2017-08-05T23:45:48.972Z,7.77
2017-08-05T23:48:50.558Z,7.60
2017-08-05T23:51:52.069Z,7.70
2017-08-05T23:54:53.619Z,7.80
2017-08-05T23:57:55.174Z,8.93
